sensor_id;sensor_type;location;lat;lon;timestamp;P1;durP1;ratioP1;P2;durP2;ratioP2
68216;SDS011;55037;52.354;4.992;2023-04-24T00:01:26;9.30;;;6.07;;
68216;SDS011;55037;52.354;4.992;2023-04-24T00:03:56;10.23;;;6.65;;
68216;SDS011;55037;52.354;4.992;2023-04-24T00:06:26;12.57;;;7.60;;
68216;SDS011;55037;52.354;4.992;2023-04-24T00:09:03;10.50;;;7.07;;
68216;SDS011;55037;52.354;4.992;2023-04-24T00:11:31;16.33;;;11.23;;
68216;SDS011;55037;52.354;4.992;2023-04-24T00:14:00;9.68;;;6.15;;
68216;SDS011;55037;52.354;4.992;2023-04-24T00:16:28;4.85;;;2.50;;
68216;SDS011;55037;52.354;4.992;2023-04-24T00:18:55;3.45;;;2.08;;
68216;SDS011;55037;52.354;4.992;2023-04-24T00:21:23;3.13;;;1.60;;
68216;SDS011;55037;52.354;4.992;2023-04-24T00:23:52;2.17;;;1.30;;
68216;SDS011;55037;52.354;4.992;2023-04-24T00:26:19;2.63;;;1.00;;
68216;SDS011;55037;52.354;4.992;2023-04-24T00:28:47;2.33;;;1.30;;
68216;SDS011;55037;52.354;4.992;2023-04-24T00:31:14;3.00;;;1.23;;
68216;SDS011;55037;52.354;4.992;2023-04-24T00:33:41;2.85;;;1.40;;
68216;SDS011;55037;52.354;4.992;2023-04-24T00:36:08;3.50;;;2.07;;
68216;SDS011;55037;52.354;4.992;2023-04-24T00:38:36;2.88;;;1.85;;
68216;SDS011;55037;52.354;4.992;2023-04-24T00:41:03;2.85;;;1.27;;
68216;SDS011;55037;52.354;4.992;2023-04-24T00:43:30;3.25;;;1.80;;
68216;SDS011;55037;52.354;4.992;2023-04-24T00:45:58;3.13;;;1.40;;
68216;SDS011;55037;52.354;4.992;2023-04-24T00:48:27;2.10;;;1.00;;
68216;SDS011;55037;52.354;4.992;2023-04-24T00:50:55;3.10;;;1.40;;
68216;SDS011;55037;52.354;4.992;2023-04-24T00:53:22;2.53;;;1.30;;
68216;SDS011;55037;52.354;4.992;2023-04-24T00:55:49;2.17;;;1.40;;
68216;SDS011;55037;52.354;4.992;2023-04-24T00:58:18;3.92;;;1.50;;
68216;SDS011;55037;52.354;4.992;2023-04-24T01:00:45;3.50;;;1.60;;
68216;SDS011;55037;52.354;4.992;2023-04-24T01:03:12;4.07;;;2.22;;
68216;SDS011;55037;52.354;4.992;2023-04-24T01:05:41;4.45;;;2.47;;
68216;SDS011;55037;52.354;4.992;2023-04-24T01:08:08;5.97;;;2.97;;
68216;SDS011;55037;52.354;4.992;2023-04-24T01:10:36;8.23;;;4.15;;
68216;SDS011;55037;52.354;4.992;2023-04-24T01:13:08;9.30;;;4.73;;
68216;SDS011;55037;52.354;4.992;2023-04-24T01:15:35;6.63;;;3.75;;
68216;SDS011;55037;52.354;4.992;2023-04-24T01:18:03;5.45;;;2.88;;
68216;SDS011;55037;52.354;4.992;2023-04-24T01:20:30;6.07;;;2.67;;
68216;SDS011;55037;52.354;4.992;2023-04-24T01:22:58;5.18;;;2.80;;
68216;SDS011;55037;52.354;4.992;2023-04-24T01:25:27;4.27;;;2.20;;
68216;SDS011;55037;52.354;4.992;2023-04-24T01:27:56;5.00;;;2.03;;
68216;SDS011;55037;52.354;4.992;2023-04-24T01:30:24;4.13;;;1.90;;
68216;SDS011;55037;52.354;4.992;2023-04-24T01:32:51;5.80;;;1.67;;
68216;SDS011;55037;52.354;4.992;2023-04-24T01:35:19;2.30;;;1.33;;
68216;SDS011;55037;52.354;4.992;2023-04-24T01:37:47;3.90;;;1.60;;
68216;SDS011;55037;52.354;4.992;2023-04-24T01:40:15;2.63;;;1.50;;
68216;SDS011;55037;52.354;4.992;2023-04-24T01:42:42;2.30;;;1.35;;
68216;SDS011;55037;52.354;4.992;2023-04-24T01:45:10;2.13;;;1.30;;
68216;SDS011;55037;52.354;4.992;2023-04-24T01:47:38;1.80;;;1.00;;
68216;SDS011;55037;52.354;4.992;2023-04-24T01:50:06;3.10;;;1.10;;
68216;SDS011;55037;52.354;4.992;2023-04-24T01:52:34;1.83;;;0.80;;
68216;SDS011;55037;52.354;4.992;2023-04-24T01:55:03;1.77;;;0.98;;
68216;SDS011;55037;52.354;4.992;2023-04-24T01:57:31;2.25;;;1.00;;
68216;SDS011;55037;52.354;4.992;2023-04-24T01:59:59;3.55;;;1.00;;
68216;SDS011;55037;52.354;4.992;2023-04-24T02:02:28;1.97;;;1.00;;
68216;SDS011;55037;52.354;4.992;2023-04-24T02:04:56;2.55;;;0.93;;
68216;SDS011;55037;52.354;4.992;2023-04-24T02:07:24;2.40;;;0.80;;
68216;SDS011;55037;52.354;4.992;2023-04-24T02:09:51;2.85;;;0.73;;
68216;SDS011;55037;52.354;4.992;2023-04-24T02:12:18;2.75;;;0.90;;
68216;SDS011;55037;52.354;4.992;2023-04-24T02:14:46;3.53;;;1.17;;
68216;SDS011;55037;52.354;4.992;2023-04-24T02:17:13;3.90;;;1.23;;
68216;SDS011;55037;52.354;4.992;2023-04-24T02:19:42;3.42;;;1.00;;
68216;SDS011;55037;52.354;4.992;2023-04-24T02:22:09;2.63;;;1.00;;
68216;SDS011;55037;52.354;4.992;2023-04-24T02:24:37;2.42;;;1.10;;
68216;SDS011;55037;52.354;4.992;2023-04-24T02:27:06;2.20;;;1.00;;
68216;SDS011;55037;52.354;4.992;2023-04-24T02:29:33;3.33;;;1.00;;
68216;SDS011;55037;52.354;4.992;2023-04-24T02:32:01;5.30;;;1.00;;
68216;SDS011;55037;52.354;4.992;2023-04-24T02:34:28;2.45;;;0.90;;
68216;SDS011;55037;52.354;4.992;2023-04-24T02:36:55;2.25;;;1.65;;
68216;SDS011;55037;52.354;4.992;2023-04-24T02:39:22;1.57;;;0.77;;
68216;SDS011;55037;52.354;4.992;2023-04-24T02:41:51;4.60;;;0.70;;
68216;SDS011;55037;52.354;4.992;2023-04-24T02:44:19;1.45;;;0.60;;
68216;SDS011;55037;52.354;4.992;2023-04-24T02:46:46;1.50;;;0.70;;
68216;SDS011;55037;52.354;4.992;2023-04-24T02:49:13;2.42;;;1.02;;
68216;SDS011;55037;52.354;4.992;2023-04-24T02:51:40;1.50;;;0.80;;
68216;SDS011;55037;52.354;4.992;2023-04-24T02:54:08;3.15;;;0.90;;
68216;SDS011;55037;52.354;4.992;2023-04-24T02:56:36;2.38;;;0.70;;
68216;SDS011;55037;52.354;4.992;2023-04-24T02:59:05;2.15;;;0.80;;
68216;SDS011;55037;52.354;4.992;2023-04-24T03:01:33;1.77;;;0.90;;
68216;SDS011;55037;52.354;4.992;2023-04-24T03:04:01;1.63;;;0.70;;
68216;SDS011;55037;52.354;4.992;2023-04-24T03:06:29;3.28;;;0.90;;
68216;SDS011;55037;52.354;4.992;2023-04-24T03:08:58;1.27;;;0.70;;
68216;SDS011;55037;52.354;4.992;2023-04-24T03:11:25;1.60;;;0.80;;
68216;SDS011;55037;52.354;4.992;2023-04-24T03:13:52;1.92;;;0.80;;
68216;SDS011;55037;52.354;4.992;2023-04-24T03:16:19;3.17;;;0.60;;
68216;SDS011;55037;52.354;4.992;2023-04-24T03:18:46;2.75;;;0.80;;
68216;SDS011;55037;52.354;4.992;2023-04-24T03:21:14;1.75;;;0.60;;
68216;SDS011;55037;52.354;4.992;2023-04-24T03:23:42;2.00;;;0.70;;
68216;SDS011;55037;52.354;4.992;2023-04-24T03:26:10;1.63;;;0.60;;
68216;SDS011;55037;52.354;4.992;2023-04-24T03:28:44;2.03;;;1.10;;
68216;SDS011;55037;52.354;4.992;2023-04-24T03:31:11;3.30;;;0.60;;
68216;SDS011;55037;52.354;4.992;2023-04-24T03:33:39;2.25;;;0.90;;
68216;SDS011;55037;52.354;4.992;2023-04-24T03:36:06;1.10;;;0.68;;
68216;SDS011;55037;52.354;4.992;2023-04-24T03:38:38;1.60;;;0.65;;
68216;SDS011;55037;52.354;4.992;2023-04-24T03:41:24;3.00;;;0.80;;
68216;SDS011;55037;52.354;4.992;2023-04-24T03:43:55;3.00;;;0.80;;
68216;SDS011;55037;52.354;4.992;2023-04-24T03:46:23;1.50;;;0.80;;
68216;SDS011;55037;52.354;4.992;2023-04-24T03:48:54;3.00;;;1.30;;
68216;SDS011;55037;52.354;4.992;2023-04-24T03:51:26;1.70;;;0.80;;
68216;SDS011;55037;52.354;4.992;2023-04-24T03:53:59;3.73;;;0.97;;
68216;SDS011;55037;52.354;4.992;2023-04-24T03:56:29;3.28;;;0.98;;
68216;SDS011;55037;52.354;4.992;2023-04-24T03:58:56;3.25;;;0.90;;
68216;SDS011;55037;52.354;4.992;2023-04-24T04:01:24;2.38;;;0.80;;
68216;SDS011;55037;52.354;4.992;2023-04-24T04:03:59;3.15;;;0.95;;
68216;SDS011;55037;52.354;4.992;2023-04-24T04:06:27;3.03;;;0.77;;
68216;SDS011;55037;52.354;4.992;2023-04-24T04:08:56;3.15;;;0.80;;
68216;SDS011;55037;52.354;4.992;2023-04-24T04:11:24;4.75;;;0.80;;
68216;SDS011;55037;52.354;4.992;2023-04-24T04:13:52;1.73;;;0.60;;
68216;SDS011;55037;52.354;4.992;2023-04-24T04:16:21;3.22;;;0.90;;
68216;SDS011;55037;52.354;4.992;2023-04-24T04:18:51;5.00;;;1.00;;
68216;SDS011;55037;52.354;4.992;2023-04-24T04:21:19;7.90;;;1.00;;
68216;SDS011;55037;52.354;4.992;2023-04-24T04:23:52;4.88;;;0.98;;
68216;SDS011;55037;52.354;4.992;2023-04-24T04:26:26;1.75;;;0.88;;
68216;SDS011;55037;52.354;4.992;2023-04-24T04:29:00;2.08;;;0.88;;
68216;SDS011;55037;52.354;4.992;2023-04-24T04:31:31;2.10;;;0.90;;
68216;SDS011;55037;52.354;4.992;2023-04-24T04:34:01;2.65;;;0.90;;
68216;SDS011;55037;52.354;4.992;2023-04-24T04:36:31;3.05;;;0.85;;
68216;SDS011;55037;52.354;4.992;2023-04-24T04:39:07;2.00;;;1.20;;
68216;SDS011;55037;52.354;4.992;2023-04-24T04:41:58;2.42;;;0.93;;
68216;SDS011;55037;52.354;4.992;2023-04-24T04:44:29;2.00;;;0.70;;
68216;SDS011;55037;52.354;4.992;2023-04-24T04:46:59;1.50;;;0.80;;
68216;SDS011;55037;52.354;4.992;2023-04-24T04:49:29;2.40;;;0.82;;
68216;SDS011;55037;52.354;4.992;2023-04-24T04:51:57;1.58;;;0.90;;
68216;SDS011;55037;52.354;4.992;2023-04-24T04:54:26;1.50;;;0.82;;
68216;SDS011;55037;52.354;4.992;2023-04-24T04:56:54;1.90;;;0.80;;
68216;SDS011;55037;52.354;4.992;2023-04-24T04:59:21;2.95;;;0.90;;
68216;SDS011;55037;52.354;4.992;2023-04-24T05:01:53;2.40;;;0.98;;
68216;SDS011;55037;52.354;4.992;2023-04-24T05:04:22;2.92;;;0.90;;
68216;SDS011;55037;52.354;4.992;2023-04-24T05:06:49;3.97;;;0.70;;
68216;SDS011;55037;52.354;4.992;2023-04-24T05:09:18;3.40;;;0.70;;
68216;SDS011;55037;52.354;4.992;2023-04-24T05:11:52;2.45;;;0.80;;
68216;SDS011;55037;52.354;4.992;2023-04-24T05:14:22;1.63;;;0.60;;
68216;SDS011;55037;52.354;4.992;2023-04-24T05:16:49;1.08;;;0.52;;
68216;SDS011;55037;52.354;4.992;2023-04-24T05:19:19;1.60;;;0.85;;
68216;SDS011;55037;52.354;4.992;2023-04-24T05:21:46;3.03;;;0.90;;
68216;SDS011;55037;52.354;4.992;2023-04-24T05:24:14;1.50;;;0.90;;
68216;SDS011;55037;52.354;4.992;2023-04-24T05:27:02;2.80;;;1.05;;
68216;SDS011;55037;52.354;4.992;2023-04-24T05:29:37;5.65;;;1.92;;
68216;SDS011;55037;52.354;4.992;2023-04-24T05:32:05;5.63;;;1.80;;
68216;SDS011;55037;52.354;4.992;2023-04-24T05:34:32;3.87;;;2.07;;
68216;SDS011;55037;52.354;4.992;2023-04-24T05:36:59;4.90;;;1.70;;
68216;SDS011;55037;52.354;4.992;2023-04-24T05:39:27;8.32;;;3.42;;
68216;SDS011;55037;52.354;4.992;2023-04-24T05:41:54;7.10;;;3.63;;
68216;SDS011;55037;52.354;4.992;2023-04-24T05:44:24;7.43;;;4.35;;
68216;SDS011;55037;52.354;4.992;2023-04-24T05:46:52;13.17;;;6.37;;
68216;SDS011;55037;52.354;4.992;2023-04-24T05:49:20;15.52;;;6.00;;
68216;SDS011;55037;52.354;4.992;2023-04-24T05:51:47;24.00;;;7.40;;
68216;SDS011;55037;52.354;4.992;2023-04-24T05:54:16;18.35;;;6.90;;
68216;SDS011;55037;52.354;4.992;2023-04-24T05:56:43;16.23;;;7.30;;
68216;SDS011;55037;52.354;4.992;2023-04-24T05:59:14;15.07;;;6.67;;
68216;SDS011;55037;52.354;4.992;2023-04-24T06:01:41;17.88;;;7.53;;
68216;SDS011;55037;52.354;4.992;2023-04-24T06:04:14;21.90;;;6.80;;
68216;SDS011;55037;52.354;4.992;2023-04-24T06:06:41;19.17;;;8.23;;
68216;SDS011;55037;52.354;4.992;2023-04-24T06:09:09;16.20;;;7.70;;
68216;SDS011;55037;52.354;4.992;2023-04-24T06:11:36;21.83;;;9.07;;
68216;SDS011;55037;52.354;4.992;2023-04-24T06:14:05;19.45;;;7.45;;
68216;SDS011;55037;52.354;4.992;2023-04-24T06:16:39;21.30;;;7.55;;
68216;SDS011;55037;52.354;4.992;2023-04-24T06:19:28;15.80;;;7.97;;
68216;SDS011;55037;52.354;4.992;2023-04-24T06:21:56;18.23;;;8.45;;
68216;SDS011;55037;52.354;4.992;2023-04-24T06:24:26;23.13;;;9.20;;
68216;SDS011;55037;52.354;4.992;2023-04-24T06:26:54;21.27;;;7.78;;
68216;SDS011;55037;52.354;4.992;2023-04-24T06:29:23;14.75;;;6.03;;
68216;SDS011;55037;52.354;4.992;2023-04-24T06:31:50;27.35;;;10.05;;
68216;SDS011;55037;52.354;4.992;2023-04-24T06:34:17;15.63;;;7.50;;
68216;SDS011;55037;52.354;4.992;2023-04-24T06:36:46;21.77;;;8.63;;
68216;SDS011;55037;52.354;4.992;2023-04-24T06:39:13;18.73;;;6.68;;
68216;SDS011;55037;52.354;4.992;2023-04-24T06:41:41;14.32;;;7.47;;
68216;SDS011;55037;52.354;4.992;2023-04-24T06:44:17;19.88;;;8.50;;
68216;SDS011;55037;52.354;4.992;2023-04-24T06:46:45;14.85;;;6.75;;
68216;SDS011;55037;52.354;4.992;2023-04-24T06:49:12;18.10;;;7.80;;
68216;SDS011;55037;52.354;4.992;2023-04-24T06:51:42;20.15;;;8.10;;
68216;SDS011;55037;52.354;4.992;2023-04-24T06:54:09;18.58;;;8.38;;
68216;SDS011;55037;52.354;4.992;2023-04-24T06:56:37;33.03;;;8.85;;
68216;SDS011;55037;52.354;4.992;2023-04-24T06:59:04;13.65;;;5.40;;
68216;SDS011;55037;52.354;4.992;2023-04-24T07:01:31;18.13;;;7.53;;
68216;SDS011;55037;52.354;4.992;2023-04-24T07:03:58;19.95;;;7.97;;
68216;SDS011;55037;52.354;4.992;2023-04-24T07:06:26;19.98;;;7.72;;
68216;SDS011;55037;52.354;4.992;2023-04-24T07:08:54;11.63;;;4.75;;
68216;SDS011;55037;52.354;4.992;2023-04-24T07:11:22;20.15;;;7.82;;
68216;SDS011;55037;52.354;4.992;2023-04-24T07:13:50;19.80;;;6.53;;
68216;SDS011;55037;52.354;4.992;2023-04-24T07:16:17;12.82;;;5.78;;
68216;SDS011;55037;52.354;4.992;2023-04-24T07:18:44;14.77;;;6.65;;
68216;SDS011;55037;52.354;4.992;2023-04-24T07:21:12;13.45;;;5.20;;
68216;SDS011;55037;52.354;4.992;2023-04-24T07:23:39;14.68;;;4.00;;
68216;SDS011;55037;52.354;4.992;2023-04-24T07:26:08;17.07;;;5.50;;
68216;SDS011;55037;52.354;4.992;2023-04-24T07:28:35;22.83;;;6.22;;
68216;SDS011;55037;52.354;4.992;2023-04-24T07:31:02;30.25;;;6.45;;
68216;SDS011;55037;52.354;4.992;2023-04-24T07:33:30;20.33;;;5.95;;
68216;SDS011;55037;52.354;4.992;2023-04-24T07:35:57;22.45;;;5.70;;
68216;SDS011;55037;52.354;4.992;2023-04-24T07:38:25;26.03;;;5.63;;
68216;SDS011;55037;52.354;4.992;2023-04-24T07:40:52;21.33;;;5.78;;
68216;SDS011;55037;52.354;4.992;2023-04-24T07:43:20;31.38;;;6.30;;
68216;SDS011;55037;52.354;4.992;2023-04-24T07:45:47;25.38;;;4.95;;
68216;SDS011;55037;52.354;4.992;2023-04-24T07:48:15;22.92;;;4.82;;
68216;SDS011;55037;52.354;4.992;2023-04-24T07:50:44;13.20;;;3.93;;
68216;SDS011;55037;52.354;4.992;2023-04-24T07:53:11;13.98;;;2.78;;
68216;SDS011;55037;52.354;4.992;2023-04-24T07:55:39;14.25;;;3.38;;
68216;SDS011;55037;52.354;4.992;2023-04-24T07:58:06;10.40;;;3.45;;
68216;SDS011;55037;52.354;4.992;2023-04-24T08:00:33;12.00;;;2.92;;
68216;SDS011;55037;52.354;4.992;2023-04-24T08:03:01;14.40;;;3.43;;
68216;SDS011;55037;52.354;4.992;2023-04-24T08:05:28;10.75;;;3.20;;
68216;SDS011;55037;52.354;4.992;2023-04-24T08:07:56;13.82;;;3.00;;
68216;SDS011;55037;52.354;4.992;2023-04-24T08:10:23;14.95;;;3.03;;
68216;SDS011;55037;52.354;4.992;2023-04-24T08:12:51;15.65;;;2.90;;
68216;SDS011;55037;52.354;4.992;2023-04-24T08:15:18;14.20;;;2.70;;
68216;SDS011;55037;52.354;4.992;2023-04-24T08:17:48;13.32;;;2.97;;
68216;SDS011;55037;52.354;4.992;2023-04-24T08:20:16;14.63;;;2.65;;
68216;SDS011;55037;52.354;4.992;2023-04-24T08:22:43;8.98;;;1.95;;
68216;SDS011;55037;52.354;4.992;2023-04-24T08:25:13;11.05;;;2.33;;
68216;SDS011;55037;52.354;4.992;2023-04-24T08:27:40;4.53;;;1.90;;
68216;SDS011;55037;52.354;4.992;2023-04-24T08:30:08;14.57;;;2.97;;
68216;SDS011;55037;52.354;4.992;2023-04-24T08:32:36;7.38;;;1.80;;
68216;SDS011;55037;52.354;4.992;2023-04-24T08:35:04;7.15;;;1.90;;
68216;SDS011;55037;52.354;4.992;2023-04-24T08:37:31;8.63;;;2.20;;
68216;SDS011;55037;52.354;4.992;2023-04-24T08:39:59;8.10;;;2.03;;
68216;SDS011;55037;52.354;4.992;2023-04-24T08:42:27;9.48;;;2.17;;
68216;SDS011;55037;52.354;4.992;2023-04-24T08:44:59;9.30;;;2.42;;
68216;SDS011;55037;52.354;4.992;2023-04-24T08:47:27;10.77;;;2.00;;
68216;SDS011;55037;52.354;4.992;2023-04-24T08:49:56;14.82;;;2.88;;
68216;SDS011;55037;52.354;4.992;2023-04-24T08:52:24;11.00;;;2.93;;
68216;SDS011;55037;52.354;4.992;2023-04-24T08:54:52;12.23;;;3.00;;
68216;SDS011;55037;52.354;4.992;2023-04-24T08:57:21;12.05;;;2.72;;
68216;SDS011;55037;52.354;4.992;2023-04-24T08:59:49;8.88;;;1.98;;
68216;SDS011;55037;52.354;4.992;2023-04-24T09:02:17;8.77;;;2.00;;
68216;SDS011;55037;52.354;4.992;2023-04-24T09:04:45;15.97;;;2.80;;
68216;SDS011;55037;52.354;4.992;2023-04-24T09:07:14;8.85;;;2.10;;
68216;SDS011;55037;52.354;4.992;2023-04-24T09:09:43;8.52;;;2.30;;
68216;SDS011;55037;52.354;4.992;2023-04-24T09:12:11;11.07;;;3.13;;
68216;SDS011;55037;52.354;4.992;2023-04-24T09:14:39;11.00;;;2.80;;
68216;SDS011;55037;52.354;4.992;2023-04-24T09:17:09;11.63;;;2.23;;
68216;SDS011;55037;52.354;4.992;2023-04-24T09:19:36;10.10;;;2.15;;
68216;SDS011;55037;52.354;4.992;2023-04-24T09:22:05;12.15;;;2.20;;
68216;SDS011;55037;52.354;4.992;2023-04-24T09:24:33;9.23;;;2.33;;
68216;SDS011;55037;52.354;4.992;2023-04-24T09:27:01;13.32;;;2.80;;
68216;SDS011;55037;52.354;4.992;2023-04-24T09:29:29;5.97;;;2.00;;
68216;SDS011;55037;52.354;4.992;2023-04-24T09:31:56;12.27;;;2.63;;
68216;SDS011;55037;52.354;4.992;2023-04-24T09:34:26;5.82;;;1.95;;
68216;SDS011;55037;52.354;4.992;2023-04-24T09:36:54;7.82;;;2.03;;
68216;SDS011;55037;52.354;4.992;2023-04-24T09:39:22;9.20;;;2.10;;
68216;SDS011;55037;52.354;4.992;2023-04-24T09:41:50;6.03;;;1.37;;
68216;SDS011;55037;52.354;4.992;2023-04-24T09:44:22;9.85;;;1.80;;
68216;SDS011;55037;52.354;4.992;2023-04-24T09:46:52;10.13;;;1.90;;
68216;SDS011;55037;52.354;4.992;2023-04-24T09:49:24;7.50;;;1.60;;
68216;SDS011;55037;52.354;4.992;2023-04-24T09:51:52;6.05;;;1.80;;
68216;SDS011;55037;52.354;4.992;2023-04-24T09:54:28;7.50;;;1.53;;
68216;SDS011;55037;52.354;4.992;2023-04-24T09:56:56;5.80;;;1.90;;
68216;SDS011;55037;52.354;4.992;2023-04-24T09:59:23;9.38;;;1.60;;
68216;SDS011;55037;52.354;4.992;2023-04-24T10:01:51;10.82;;;2.35;;
68216;SDS011;55037;52.354;4.992;2023-04-24T10:04:19;9.35;;;1.73;;
68216;SDS011;55037;52.354;4.992;2023-04-24T10:06:48;11.53;;;1.80;;
68216;SDS011;55037;52.354;4.992;2023-04-24T10:09:18;5.65;;;1.63;;
68216;SDS011;55037;52.354;4.992;2023-04-24T10:11:47;7.65;;;2.10;;
68216;SDS011;55037;52.354;4.992;2023-04-24T10:14:17;6.03;;;1.30;;
68216;SDS011;55037;52.354;4.992;2023-04-24T10:16:47;9.77;;;1.75;;
68216;SDS011;55037;52.354;4.992;2023-04-24T10:19:16;3.37;;;1.33;;
68216;SDS011;55037;52.354;4.992;2023-04-24T10:21:45;4.45;;;1.08;;
68216;SDS011;55037;52.354;4.992;2023-04-24T10:24:14;3.50;;;1.10;;
68216;SDS011;55037;52.354;4.992;2023-04-24T10:26:43;3.85;;;1.27;;
68216;SDS011;55037;52.354;4.992;2023-04-24T10:29:12;3.67;;;1.35;;
68216;SDS011;55037;52.354;4.992;2023-04-24T10:31:42;3.67;;;1.17;;
68216;SDS011;55037;52.354;4.992;2023-04-24T10:34:12;4.60;;;1.27;;
68216;SDS011;55037;52.354;4.992;2023-04-24T10:36:45;7.35;;;1.23;;
68216;SDS011;55037;52.354;4.992;2023-04-24T10:39:15;3.88;;;1.42;;
68216;SDS011;55037;52.354;4.992;2023-04-24T10:41:44;5.65;;;1.52;;
68216;SDS011;55037;52.354;4.992;2023-04-24T10:44:14;4.17;;;1.20;;
68216;SDS011;55037;52.354;4.992;2023-04-24T10:46:46;8.55;;;1.98;;
68216;SDS011;55037;52.354;4.992;2023-04-24T10:49:27;3.97;;;1.42;;
68216;SDS011;55037;52.354;4.992;2023-04-24T10:51:59;6.68;;;1.42;;
68216;SDS011;55037;52.354;4.992;2023-04-24T10:59:49;6.47;;;1.58;;
68216;SDS011;55037;52.354;4.992;2023-04-24T11:02:18;6.55;;;1.23;;
68216;SDS011;55037;52.354;4.992;2023-04-24T11:05:05;6.00;;;1.40;;
68216;SDS011;55037;52.354;4.992;2023-04-24T11:10:45;3.63;;;1.15;;
68216;SDS011;55037;52.354;4.992;2023-04-24T11:13:14;4.47;;;1.40;;
68216;SDS011;55037;52.354;4.992;2023-04-24T11:15:43;3.92;;;1.30;;
68216;SDS011;55037;52.354;4.992;2023-04-24T11:18:14;5.15;;;1.30;;
68216;SDS011;55037;52.354;4.992;2023-04-24T11:20:43;6.68;;;1.15;;
68216;SDS011;55037;52.354;4.992;2023-04-24T11:23:11;5.13;;;1.90;;
68216;SDS011;55037;52.354;4.992;2023-04-24T11:25:39;5.60;;;1.45;;
68216;SDS011;55037;52.354;4.992;2023-04-24T11:28:08;4.65;;;1.17;;
68216;SDS011;55037;52.354;4.992;2023-04-24T11:30:42;5.63;;;1.48;;
68216;SDS011;55037;52.354;4.992;2023-04-24T11:33:09;5.32;;;1.70;;
68216;SDS011;55037;52.354;4.992;2023-04-24T11:35:39;6.77;;;1.30;;
68216;SDS011;55037;52.354;4.992;2023-04-24T11:38:07;5.75;;;1.85;;
68216;SDS011;55037;52.354;4.992;2023-04-24T11:40:38;5.75;;;1.33;;
68216;SDS011;55037;52.354;4.992;2023-04-24T11:43:06;4.65;;;1.40;;
68216;SDS011;55037;52.354;4.992;2023-04-24T11:45:34;4.43;;;1.40;;
68216;SDS011;55037;52.354;4.992;2023-04-24T11:48:02;4.70;;;1.40;;
68216;SDS011;55037;52.354;4.992;2023-04-24T11:50:30;5.38;;;1.92;;
68216;SDS011;55037;52.354;4.992;2023-04-24T11:52:57;6.68;;;1.38;;
68216;SDS011;55037;52.354;4.992;2023-04-24T11:55:27;10.20;;;1.85;;
68216;SDS011;55037;52.354;4.992;2023-04-24T11:57:56;7.45;;;1.83;;
68216;SDS011;55037;52.354;4.992;2023-04-24T12:00:26;9.50;;;2.10;;
68216;SDS011;55037;52.354;4.992;2023-04-24T12:03:04;9.85;;;2.03;;
68216;SDS011;55037;52.354;4.992;2023-04-24T12:05:36;7.85;;;2.00;;
68216;SDS011;55037;52.354;4.992;2023-04-24T12:08:04;6.93;;;1.55;;
68216;SDS011;55037;52.354;4.992;2023-04-24T12:10:32;7.90;;;1.70;;
68216;SDS011;55037;52.354;4.992;2023-04-24T12:13:01;8.87;;;1.87;;
68216;SDS011;55037;52.354;4.992;2023-04-24T12:15:29;15.48;;;2.30;;
68216;SDS011;55037;52.354;4.992;2023-04-24T12:17:56;5.18;;;1.63;;
68216;SDS011;55037;52.354;4.992;2023-04-24T12:20:24;5.82;;;1.77;;
68216;SDS011;55037;52.354;4.992;2023-04-24T12:22:58;4.18;;;1.00;;
68216;SDS011;55037;52.354;4.992;2023-04-24T12:25:27;10.77;;;2.20;;
68216;SDS011;55037;52.354;4.992;2023-04-24T12:30:48;6.93;;;1.70;;
68216;SDS011;55037;52.354;4.992;2023-04-24T12:33:17;4.72;;;1.65;;
68216;SDS011;55037;52.354;4.992;2023-04-24T12:35:48;5.78;;;1.40;;
68216;SDS011;55037;52.354;4.992;2023-04-24T12:38:23;13.93;;;2.20;;
68216;SDS011;55037;52.354;4.992;2023-04-24T12:41:02;7.40;;;1.70;;
68216;SDS011;55037;52.354;4.992;2023-04-24T12:43:36;9.40;;;2.35;;
68216;SDS011;55037;52.354;4.992;2023-04-24T12:46:04;4.38;;;1.42;;
68216;SDS011;55037;52.354;4.992;2023-04-24T12:48:32;7.40;;;1.85;;
68216;SDS011;55037;52.354;4.992;2023-04-24T12:50:59;7.67;;;1.73;;
68216;SDS011;55037;52.354;4.992;2023-04-24T12:53:29;7.25;;;1.55;;
68216;SDS011;55037;52.354;4.992;2023-04-24T12:55:57;13.32;;;2.67;;
68216;SDS011;55037;52.354;4.992;2023-04-24T12:58:25;4.95;;;1.77;;
68216;SDS011;55037;52.354;4.992;2023-04-24T13:00:52;12.07;;;2.25;;
68216;SDS011;55037;52.354;4.992;2023-04-24T13:03:19;7.10;;;1.90;;
68216;SDS011;55037;52.354;4.992;2023-04-24T13:05:47;6.97;;;1.98;;
68216;SDS011;55037;52.354;4.992;2023-04-24T13:08:14;9.57;;;2.65;;
68216;SDS011;55037;52.354;4.992;2023-04-24T13:10:42;9.48;;;2.15;;
68216;SDS011;55037;52.354;4.992;2023-04-24T13:13:09;9.30;;;2.20;;
68216;SDS011;55037;52.354;4.992;2023-04-24T13:15:36;6.40;;;2.15;;
68216;SDS011;55037;52.354;4.992;2023-04-24T13:18:03;7.35;;;2.15;;
68216;SDS011;55037;52.354;4.992;2023-04-24T13:20:31;11.63;;;2.42;;
68216;SDS011;55037;52.354;4.992;2023-04-24T13:22:58;9.93;;;2.63;;
68216;SDS011;55037;52.354;4.992;2023-04-24T13:25:26;21.42;;;2.47;;
68216;SDS011;55037;52.354;4.992;2023-04-24T13:27:54;13.67;;;2.50;;
68216;SDS011;55037;52.354;4.992;2023-04-24T13:30:22;8.18;;;2.40;;
68216;SDS011;55037;52.354;4.992;2023-04-24T13:32:49;9.57;;;2.17;;
68216;SDS011;55037;52.354;4.992;2023-04-24T13:35:16;7.72;;;2.22;;
68216;SDS011;55037;52.354;4.992;2023-04-24T13:37:44;6.43;;;1.88;;
68216;SDS011;55037;52.354;4.992;2023-04-24T13:40:11;4.80;;;1.80;;
68216;SDS011;55037;52.354;4.992;2023-04-24T13:42:39;7.13;;;2.00;;
68216;SDS011;55037;52.354;4.992;2023-04-24T13:45:07;10.18;;;2.65;;
68216;SDS011;55037;52.354;4.992;2023-04-24T13:47:50;10.02;;;2.45;;
68216;SDS011;55037;52.354;4.992;2023-04-24T13:50:19;5.55;;;2.08;;
68216;SDS011;55037;52.354;4.992;2023-04-24T13:52:47;15.65;;;3.17;;
68216;SDS011;55037;52.354;4.992;2023-04-24T13:55:14;7.50;;;1.95;;
68216;SDS011;55037;52.354;4.992;2023-04-24T13:57:41;12.70;;;2.63;;
68216;SDS011;55037;52.354;4.992;2023-04-24T14:00:09;7.53;;;2.17;;
68216;SDS011;55037;52.354;4.992;2023-04-24T14:02:37;8.88;;;2.08;;
68216;SDS011;55037;52.354;4.992;2023-04-24T14:05:05;7.75;;;2.22;;
68216;SDS011;55037;52.354;4.992;2023-04-24T14:07:33;5.78;;;1.63;;
68216;SDS011;55037;52.354;4.992;2023-04-24T14:10:00;5.25;;;1.60;;
68216;SDS011;55037;52.354;4.992;2023-04-24T14:12:27;9.05;;;2.05;;
68216;SDS011;55037;52.354;4.992;2023-04-24T14:14:54;8.07;;;2.00;;
68216;SDS011;55037;52.354;4.992;2023-04-24T14:17:22;5.93;;;2.17;;
68216;SDS011;55037;52.354;4.992;2023-04-24T14:19:49;11.00;;;2.50;;
68216;SDS011;55037;52.354;4.992;2023-04-24T14:22:18;8.73;;;2.67;;
68216;SDS011;55037;52.354;4.992;2023-04-24T14:24:45;16.85;;;3.60;;
68216;SDS011;55037;52.354;4.992;2023-04-24T14:27:12;7.95;;;2.63;;
68216;SDS011;55037;52.354;4.992;2023-04-24T14:29:40;10.52;;;2.30;;
68216;SDS011;55037;52.354;4.992;2023-04-24T14:32:07;9.68;;;2.42;;
68216;SDS011;55037;52.354;4.992;2023-04-24T14:34:35;7.82;;;2.38;;
68216;SDS011;55037;52.354;4.992;2023-04-24T14:37:02;12.82;;;2.83;;
68216;SDS011;55037;52.354;4.992;2023-04-24T14:39:30;12.88;;;3.08;;
68216;SDS011;55037;52.354;4.992;2023-04-24T14:41:57;9.25;;;2.50;;
68216;SDS011;55037;52.354;4.992;2023-04-24T14:44:24;11.48;;;2.70;;
68216;SDS011;55037;52.354;4.992;2023-04-24T14:46:52;13.45;;;2.65;;
68216;SDS011;55037;52.354;4.992;2023-04-24T14:49:20;11.60;;;2.83;;
68216;SDS011;55037;52.354;4.992;2023-04-24T14:51:47;11.18;;;2.95;;
68216;SDS011;55037;52.354;4.992;2023-04-24T14:54:14;11.63;;;3.10;;
68216;SDS011;55037;52.354;4.992;2023-04-24T14:56:41;11.60;;;2.72;;
68216;SDS011;55037;52.354;4.992;2023-04-24T14:59:10;9.85;;;3.75;;
68216;SDS011;55037;52.354;4.992;2023-04-24T15:01:38;10.95;;;2.53;;
68216;SDS011;55037;52.354;4.992;2023-04-24T15:04:05;9.32;;;2.50;;